Maxi_solo_g17 — FAE6509 — position and weather

sailwx.info

Track history (hours):
 
Tides and Currents Weather Stations Pressure Air Temp Water Temp Dewpoint Dewpoint Depression Visibility Wind Speed Wind Dir Waves Ship Positions

Maxi_solo_g17

Last reported at 2017-Sep-21 16:37 UTC. Time now 2017-Sep-22 17:25 UTC.
Position N 47°44' W 003°22'.

Length 32 m; draft 4 m.

Type: Sailing vessel. MMSI: 227498430.

Date/timePositionNaut miles runAvg speedWind from/ knotsBaromVisibWave heightAir tempDewpointWater temp
2017-Sep-21 16:37N 47°44' W 003°22'0 0.0
2017-Sep-21 16:30N 47°44' W 003°22'0 0.0
2017-Sep-21 16:00N 47°44' W 003°22'0 0.0
2017-Sep-21 15:30N 47°44' W 003°22'0 0.0
2017-Sep-21 15:00N 47°44' W 003°22'0 0.0
2017-Sep-21 14:30N 47°44' W 003°22'0 0.0
2017-Sep-21 14:00N 47°44' W 003°22'0 0.0
2017-Sep-21 13:07N 47°44' W 003°22'0 0.0
2017-Sep-21 13:01N 47°44' W 003°22'0 0.0
2017-Sep-21 12:31N 47°44' W 003°22'0 0.0
2017-Sep-21 12:00N 47°44' W 003°22'0 0.0
2017-Sep-21 11:31N 47°44' W 003°22'0 0.0
2017-Sep-21 11:01N 47°44' W 003°22'0 0.0
2017-Sep-21 10:31N 47°44' W 003°22'0 0.0
2017-Sep-21 10:01N 47°44' W 003°22'0 0.0
2017-Sep-21 09:31N 47°44' W 003°22'0 0.0
2017-Sep-21 09:01N 47°44' W 003°22'0 0.0
2017-Sep-21 08:30N 47°44' W 003°22'0 0.0
2017-Sep-21 08:00N 47°44' W 003°22'0 0.0
2017-Sep-21 07:31N 47°44' W 003°22'0 0.0
2017-Sep-20 15:34N 47°44' W 003°22'0 0.0
2017-Sep-20 15:05N 47°44' W 003°22'0 0.0
2017-Sep-20 15:00N 47°44' W 003°22'0 0.0
2017-Sep-20 14:00N 47°44' W 003°22'0 0.0
2017-Sep-20 13:30N 47°44' W 003°22'0 0.0
2017-Sep-20 13:00N 47°44' W 003°22'0 0.0
2017-Sep-20 12:30N 47°44' W 003°22'0 0.0
2017-Sep-20 12:00N 47°44' W 003°22'0 0.0
2017-Sep-20 11:30N 47°44' W 003°22'0 0.0
2017-Sep-20 11:00N 47°44' W 003°22'0 0.0
2017-Sep-20 10:30N 47°44' W 003°22'0 0.0
2017-Sep-20 10:00N 47°44' W 003°22'0 0.0
2017-Sep-20 09:30N 47°44' W 003°22'0 0.0
2017-Sep-20 09:00N 47°44' W 003°22'0 0.0
2017-Sep-20 08:30N 47°44' W 003°22'0 0.0
2017-Sep-20 08:00N 47°44' W 003°22'0 0.0
2017-Sep-20 07:30N 47°44' W 003°22'0 0.0
2017-Sep-19 16:42N 47°44' W 003°22'0 0.0
2017-Sep-19 16:30N 47°44' W 003°22'0 0.0
2017-Sep-19 16:00N 47°44' W 003°22'0 0.0
2017-Sep-19 15:30N 47°44' W 003°22'0 0.0
2017-Sep-19 15:00N 47°44' W 003°22'0 0.0
2017-Sep-19 14:30N 47°44' W 003°22'0 0.0
2017-Sep-19 14:00N 47°44' W 003°22'0 0.0
2017-Sep-19 13:30N 47°44' W 003°22'0 0.0
2017-Sep-19 13:00N 47°44' W 003°22'0 0.0
2017-Sep-19 12:30N 47°44' W 003°22'0 0.0
2017-Sep-19 12:00N 47°44' W 003°22'0 0.0
2017-Sep-19 11:30N 47°44' W 003°22'0 0.0
2017-Sep-19 11:00N 47°44' W 003°22'0 0.0
2017-Sep-19 10:30N 47°44' W 003°22'0 0.0
2017-Sep-19 10:00N 47°44' W 003°22'0 0.0
2017-Sep-19 09:30N 47°44' W 003°22'0 0.0
2017-Sep-19 09:00N 47°44' W 003°22'0 0.0
2017-Sep-19 08:30N 47°44' W 003°22'0 0.0
2017-Sep-19 08:00N 47°44' W 003°22'0 0.0
2017-Sep-19 07:30N 47°44' W 003°22'0 0.0
2017-Sep-18 14:39N 47°44' W 003°22'0 0.0
2017-Sep-18 14:30N 47°44' W 003°22'0 0.5
2017-Sep-18 14:00N 47°43' W 003°22'4 8.0
2017-Sep-18 13:31N 47°39' W 003°22'4 7.8
2017-Sep-18 13:01N 47°36' W 003°19'1122.6
2017-Sep-18 12:31N 47°27' W 003°28'3 5.5
2017-Sep-18 12:00N 47°29' W 003°28'714.9
2017-Sep-18 11:30N 47°36' W 003°23'2 4.9
2017-Sep-18 11:01N 47°39' W 003°24'3 5.3
2017-Sep-18 10:30N 47°41' W 003°24'2 4.9
2017-Sep-18 10:00N 47°44' W 003°22'0 0.1
2017-Sep-18 09:30N 47°44' W 003°22'0 0.0
2017-Sep-18 09:00N 47°44' W 003°22'0 0.0
2017-Sep-18 08:30N 47°44' W 003°22'0 0.0
2017-Sep-18 08:00N 47°44' W 003°22'0 0.0
2017-Sep-18 07:30N 47°44' W 003°22'0 0.0
2017-Sep-18 07:00N 47°44' W 003°22'0 0.0
2017-Sep-16 15:46N 47°44' W 003°22'0 0.0
2017-Sep-15 13:15N 47°44' W 003°22'0 0.0
2017-Sep-15 09:08N 47°44' W 003°22'0 0.0
2017-Sep-15 09:00N 47°44' W 003°22'0 0.0
2017-Sep-15 08:30N 47°44' W 003°22'0 0.0
2017-Sep-14 15:25N 47°44' W 003°22'0 0.0
2017-Sep-14 13:03N 47°44' W 003°22'0 0.0
2017-Sep-14 13:00N 47°44' W 003°22'0 0.2
2017-Sep-14 12:30N 47°44' W 003°22'3 5.7
2017-Sep-14 12:00N 47°41' W 003°22'1019.8
2017-Sep-14 11:31N 47°31' W 003°23'1122.3
2017-Sep-14 11:00N 47°20' W 003°26'510.4
2017-Sep-14 10:31N 47°22' W 003°19'1122.5
2017-Sep-14 10:00N 47°33' W 003°20'918.9
2017-Sep-14 09:31N 47°42' W 003°22'1 2.5
2017-Sep-14 09:00N 47°44' W 003°22'0 0.0
2017-Sep-14 08:31N 47°44' W 003°22'0 0.0
2017-Sep-14 08:00N 47°44' W 003°22'0 0.0
2017-Sep-13 16:58N 47°44' W 003°22'0 0.0
2017-Sep-13 16:31N 47°44' W 003°22'0 0.0
2017-Sep-13 15:57N 47°44' W 003°22'0 0.0
2017-Sep-13 15:30N 47°44' W 003°22'0 0.0
2017-Sep-13 15:00N 47°44' W 003°22'0 0.0
2017-Sep-13 14:30N 47°44' W 003°22'0 0.0
2017-Sep-13 14:01N 47°44' W 003°22'0 0.0
2017-Sep-13 13:30N 47°44' W 003°22'0 0.0
2017-Sep-13 13:00N 47°44' W 003°22'0 0.0
2017-Sep-13 12:30N 47°44' W 003°22'0 0.0
2017-Sep-13 12:00N 47°44' W 003°22'0 0.0
2017-Sep-13 11:30N 47°44' W 003°22'0 0.0
2017-Sep-13 11:00N 47°44' W 003°22'0 0.0
2017-Sep-13 10:30N 47°44' W 003°22'0 0.0
2017-Sep-13 10:00N 47°44' W 003°22'0 0.0
2017-Sep-13 09:30N 47°44' W 003°22'0 0.0
2017-Sep-13 09:00N 47°44' W 003°22'0 0.0
2017-Sep-13 08:30N 47°44' W 003°22'0 0.0
2017-Sep-13 08:00N 47°44' W 003°22'0 0.0
2017-Sep-13 07:31N 47°44' W 003°22'0 0.0
2017-Sep-12 16:34N 47°44' W 003°22'0 0.0
2017-Sep-12 16:30N 47°44' W 003°22'0 0.0
2017-Sep-12 16:00N 47°44' W 003°22'0 0.0
2017-Sep-12 15:30N 47°44' W 003°22'0 0.0
2017-Sep-12 15:00N 47°44' W 003°22'0 0.0
2017-Sep-12 14:30N 47°44' W 003°22'2 4.2
2017-Sep-12 14:00N 47°42' W 003°22'1122.3
2017-Sep-12 13:31N 47°30' W 003°22'1632.2
2017-Sep-12 13:01N 47°15' W 003°17'816.7
2017-Sep-12 12:31N 47°23' W 003°20'1019.5
2017-Sep-12 12:01N 47°32' W 003°16'918.7
2017-Sep-12 11:30N 47°39' W 003°25'1 2.9
2017-Sep-12 11:00N 47°38' W 003°24'1019.5
2017-Sep-12 10:31N 47°28' W 003°25'1223.6
2017-Sep-12 10:00N 47°17' W 003°21'510.0
2017-Sep-12 09:31N 47°22' W 003°18'1428.3
2017-Sep-12 09:01N 47°35' W 003°23'612.9
2017-Sep-12 08:30N 47°42' W 003°22'2 3.6
2017-Sep-12 08:00N 47°44' W 003°22'0 0.0
2017-Sep-12 07:30N 47°44' W 003°22'0 0.0
2017-Sep-12 07:00N 47°44' W 003°22'0 0.0
2017-Sep-12 06:30N 47°44' W 003°22'0 0.0
2017-Sep-11 17:27N 47°44' W 003°22'0 0.0
2017-Sep-11 16:40N 47°44' W 003°22'  
Track history (hours):
 
Tides and Currents Weather Stations Pressure Air Temp Water Temp Dewpoint Dewpoint Depression Visibility Wind Speed Wind Dir Waves Ship Positions

Maxi_solo_g17

Last reported at 2017-Sep-21 16:37 UTC. Time now 2017-Sep-22 17:25 UTC.
Position N 47°44' W 003°22'.

Length 32 m; draft 4 m.

Type: Sailing vessel. MMSI: 227498430.

Date/timePositionNaut miles runAvg speedWind from/ knotsBaromVisibWave heightAir tempDewpointWater temp
2017-Sep-21 16:37N 47°44' W 003°22'0 0.0
2017-Sep-21 16:30N 47°44' W 003°22'0 0.0
2017-Sep-21 16:00N 47°44' W 003°22'0 0.0
2017-Sep-21 15:30N 47°44' W 003°22'0 0.0
2017-Sep-21 15:00N 47°44' W 003°22'0 0.0
2017-Sep-21 14:30N 47°44' W 003°22'0 0.0
2017-Sep-21 14:00N 47°44' W 003°22'0 0.0
2017-Sep-21 13:07N 47°44' W 003°22'0 0.0
2017-Sep-21 13:01N 47°44' W 003°22'0 0.0
2017-Sep-21 12:31N 47°44' W 003°22'0 0.0
2017-Sep-21 12:00N 47°44' W 003°22'0 0.0
2017-Sep-21 11:31N 47°44' W 003°22'0 0.0
2017-Sep-21 11:01N 47°44' W 003°22'0 0.0
2017-Sep-21 10:31N 47°44' W 003°22'0 0.0
2017-Sep-21 10:01N 47°44' W 003°22'0 0.0
2017-Sep-21 09:31N 47°44' W 003°22'0 0.0
2017-Sep-21 09:01N 47°44' W 003°22'0 0.0
2017-Sep-21 08:30N 47°44' W 003°22'0 0.0
2017-Sep-21 08:00N 47°44' W 003°22'0 0.0
2017-Sep-21 07:31N 47°44' W 003°22'0 0.0
2017-Sep-20 15:34N 47°44' W 003°22'0 0.0
2017-Sep-20 15:05N 47°44' W 003°22'0 0.0
2017-Sep-20 15:00N 47°44' W 003°22'0 0.0
2017-Sep-20 14:00N 47°44' W 003°22'0 0.0
2017-Sep-20 13:30N 47°44' W 003°22'0 0.0
2017-Sep-20 13:00N 47°44' W 003°22'0 0.0
2017-Sep-20 12:30N 47°44' W 003°22'0 0.0
2017-Sep-20 12:00N 47°44' W 003°22'0 0.0
2017-Sep-20 11:30N 47°44' W 003°22'0 0.0
2017-Sep-20 11:00N 47°44' W 003°22'0 0.0
2017-Sep-20 10:30N 47°44' W 003°22'0 0.0
2017-Sep-20 10:00N 47°44' W 003°22'0 0.0
2017-Sep-20 09:30N 47°44' W 003°22'0 0.0
2017-Sep-20 09:00N 47°44' W 003°22'0 0.0
2017-Sep-20 08:30N 47°44' W 003°22'0 0.0
2017-Sep-20 08:00N 47°44' W 003°22'0 0.0
2017-Sep-20 07:30N 47°44' W 003°22'0 0.0
2017-Sep-19 16:42N 47°44' W 003°22'0 0.0
2017-Sep-19 16:30N 47°44' W 003°22'0 0.0
2017-Sep-19 16:00N 47°44' W 003°22'0 0.0
2017-Sep-19 15:30N 47°44' W 003°22'0 0.0
2017-Sep-19 15:00N 47°44' W 003°22'0 0.0
2017-Sep-19 14:30N 47°44' W 003°22'0 0.0
2017-Sep-19 14:00N 47°44' W 003°22'0 0.0
2017-Sep-19 13:30N 47°44' W 003°22'0 0.0
2017-Sep-19 13:00N 47°44' W 003°22'0 0.0
2017-Sep-19 12:30N 47°44' W 003°22'0 0.0
2017-Sep-19 12:00N 47°44' W 003°22'0 0.0
2017-Sep-19 11:30N 47°44' W 003°22'0 0.0
2017-Sep-19 11:00N 47°44' W 003°22'0 0.0
2017-Sep-19 10:30N 47°44' W 003°22'0 0.0
2017-Sep-19 10:00N 47°44' W 003°22'0 0.0
2017-Sep-19 09:30N 47°44' W 003°22'0 0.0
2017-Sep-19 09:00N 47°44' W 003°22'0 0.0
2017-Sep-19 08:30N 47°44' W 003°22'0 0.0
2017-Sep-19 08:00N 47°44' W 003°22'0 0.0
2017-Sep-19 07:30N 47°44' W 003°22'0 0.0
2017-Sep-18 14:39N 47°44' W 003°22'0 0.0
2017-Sep-18 14:30N 47°44' W 003°22'0 0.5
2017-Sep-18 14:00N 47°43' W 003°22'4 8.0
2017-Sep-18 13:31N 47°39' W 003°22'4 7.8
2017-Sep-18 13:01N 47°36' W 003°19'1122.6
2017-Sep-18 12:31N 47°27' W 003°28'3 5.5
2017-Sep-18 12:00N 47°29' W 003°28'714.9
2017-Sep-18 11:30N 47°36' W 003°23'2 4.9
2017-Sep-18 11:01N 47°39' W 003°24'3 5.3
2017-Sep-18 10:30N 47°41' W 003°24'2 4.9
2017-Sep-18 10:00N 47°44' W 003°22'0 0.1
2017-Sep-18 09:30N 47°44' W 003°22'0 0.0
2017-Sep-18 09:00N 47°44' W 003°22'0 0.0
2017-Sep-18 08:30N 47°44' W 003°22'0 0.0
2017-Sep-18 08:00N 47°44' W 003°22'0 0.0
2017-Sep-18 07:30N 47°44' W 003°22'0 0.0
2017-Sep-18 07:00N 47°44' W 003°22'0 0.0
2017-Sep-16 15:46N 47°44' W 003°22'0 0.0
2017-Sep-15 13:15N 47°44' W 003°22'0 0.0
2017-Sep-15 09:08N 47°44' W 003°22'0 0.0
2017-Sep-15 09:00N 47°44' W 003°22'0 0.0
2017-Sep-15 08:30N 47°44' W 003°22'0 0.0
2017-Sep-14 15:25N 47°44' W 003°22'0 0.0
2017-Sep-14 13:03N 47°44' W 003°22'0 0.0
2017-Sep-14 13:00N 47°44' W 003°22'0 0.2
2017-Sep-14 12:30N 47°44' W 003°22'3 5.7
2017-Sep-14 12:00N 47°41' W 003°22'1019.8
2017-Sep-14 11:31N 47°31' W 003°23'1122.3
2017-Sep-14 11:00N 47°20' W 003°26'510.4
2017-Sep-14 10:31N 47°22' W 003°19'1122.5
2017-Sep-14 10:00N 47°33' W 003°20'918.9
2017-Sep-14 09:31N 47°42' W 003°22'1 2.5
2017-Sep-14 09:00N 47°44' W 003°22'0 0.0
2017-Sep-14 08:31N 47°44' W 003°22'0 0.0
2017-Sep-14 08:00N 47°44' W 003°22'0 0.0
2017-Sep-13 16:58N 47°44' W 003°22'0 0.0
2017-Sep-13 16:31N 47°44' W 003°22'0 0.0
2017-Sep-13 15:57N 47°44' W 003°22'0 0.0
2017-Sep-13 15:30N 47°44' W 003°22'0 0.0
2017-Sep-13 15:00N 47°44' W 003°22'0 0.0
2017-Sep-13 14:30N 47°44' W 003°22'0 0.0
2017-Sep-13 14:01N 47°44' W 003°22'0 0.0
2017-Sep-13 13:30N 47°44' W 003°22'0 0.0
2017-Sep-13 13:00N 47°44' W 003°22'0 0.0
2017-Sep-13 12:30N 47°44' W 003°22'0 0.0
2017-Sep-13 12:00N 47°44' W 003°22'0 0.0
2017-Sep-13 11:30N 47°44' W 003°22'0 0.0
2017-Sep-13 11:00N 47°44' W 003°22'0 0.0
2017-Sep-13 10:30N 47°44' W 003°22'0 0.0
2017-Sep-13 10:00N 47°44' W 003°22'0 0.0
2017-Sep-13 09:30N 47°44' W 003°22'0 0.0
2017-Sep-13 09:00N 47°44' W 003°22'0 0.0
2017-Sep-13 08:30N 47°44' W 003°22'0 0.0
2017-Sep-13 08:00N 47°44' W 003°22'0 0.0
2017-Sep-13 07:31N 47°44' W 003°22'0 0.0
2017-Sep-12 16:34N 47°44' W 003°22'0 0.0
2017-Sep-12 16:30N 47°44' W 003°22'0 0.0
2017-Sep-12 16:00N 47°44' W 003°22'0 0.0
2017-Sep-12 15:30N 47°44' W 003°22'0 0.0
2017-Sep-12 15:00N 47°44' W 003°22'0 0.0
2017-Sep-12 14:30N 47°44' W 003°22'2 4.2
2017-Sep-12 14:00N 47°42' W 003°22'1122.3
2017-Sep-12 13:31N 47°30' W 003°22'1632.2
2017-Sep-12 13:01N 47°15' W 003°17'816.7
2017-Sep-12 12:31N 47°23' W 003°20'1019.5
2017-Sep-12 12:01N 47°32' W 003°16'918.7
2017-Sep-12 11:30N 47°39' W 003°25'1 2.9
2017-Sep-12 11:00N 47°38' W 003°24'1019.5
2017-Sep-12 10:31N 47°28' W 003°25'1223.6
2017-Sep-12 10:00N 47°17' W 003°21'510.0
2017-Sep-12 09:31N 47°22' W 003°18'1428.3
2017-Sep-12 09:01N 47°35' W 003°23'612.9
2017-Sep-12 08:30N 47°42' W 003°22'2 3.6
2017-Sep-12 08:00N 47°44' W 003°22'0 0.0
2017-Sep-12 07:30N 47°44' W 003°22'0 0.0
2017-Sep-12 07:00N 47°44' W 003°22'0 0.0
2017-Sep-12 06:30N 47°44' W 003°22'0 0.0
2017-Sep-11 17:27N 47°44' W 003°22'0 0.0
2017-Sep-11 16:40N 47°44' W 003°22'  

Dump ship's entire track history